Time;durP1;ratioP1;P1;durP2;ratioP2;P2;SDS_P1;SDS_P2;PMS_P1;PMS_P2;Temp;Humidity;BMP_temperature;BMP_pressure;BME280_temperature;BME280_humidity;BME280_pressure;Samples;Min_cycle;Max_cycle;Signal;HPM_P1;HPM_P2
2021/06/14 00:01:56;;;;;;;14.90;4.97;;;;;;;12.68;74.92;101806.63;5032467;28;20540;-69
2021/06/14 00:04:22;;;;;;;11.60;4.60;;;;;;;12.68;74.95;101814.66;5014793;28;20266;-69
2021/06/14 00:06:47;;;;;;;9.97;4.67;;;;;;;12.62;75.32;101806.88;5032345;28;20176;-69
2021/06/14 00:09:17;;;;;;;7.47;4.23;;;;;;;12.60;75.36;101808.75;5032704;28;20230;-68
2021/06/14 00:11:42;;;;;;;10.73;5.03;;;;;;;12.61;74.93;101812.31;5032689;28;20223;-69
2021/06/14 00:14:07;;;;;;;7.63;4.33;;;;;;;12.58;75.36;101810.66;5032686;28;20175;-68
2021/06/14 00:16:35;;;;;;;8.93;4.43;;;;;;;12.60;75.11;101814.13;5015021;28;20199;-68
2021/06/14 00:19:02;;;;;;;14.90;4.57;;;;;;;12.59;75.44;101807.03;5015205;28;20205;-68
2021/06/14 00:21:27;;;;;;;7.33;4.23;;;;;;;12.60;75.52;101806.09;5032385;28;20169;-69
2021/06/14 00:23:53;;;;;;;26.40;16.17;;;;;;;12.56;75.17;101807.16;5014726;28;20302;-68
2021/06/14 00:26:18;;;;;;;14.50;6.30;;;;;;;12.53;76.20;101813.53;5014501;28;20172;-68
2021/06/14 00:28:43;;;;;;;14.83;6.90;;;;;;;12.52;75.45;101817.16;5032216;28;20323;-69
2021/06/14 00:31:09;;;;;;;16.83;7.67;;;;;;;12.52;75.41;101827.00;5032748;28;20246;-69
2021/06/14 00:33:36;;;;;;;11.03;5.87;;;;;;;12.48;76.25;101815.56;5035820;28;20202;-69
2021/06/14 00:36:02;;;;;;;12.07;6.10;;;;;;;12.43;76.06;101806.88;5036617;28;20176;-69
2021/06/14 00:38:27;;;;;;;16.63;7.80;;;;;;;12.46;76.17;101821.91;5036776;28;20203;-69
2021/06/14 00:40:53;;;;;;;8.77;4.30;;;;;;;12.41;76.42;101822.13;5035703;28;20169;-69
2021/06/14 00:43:18;;;;;;;13.07;5.03;;;;;;;12.36;77.19;101816.13;5035662;28;20222;-69
2021/06/14 00:45:47;;;;;;;7.97;3.87;;;;;;;12.26;77.04;101804.06;5035648;28;20231;-69
2021/06/14 00:48:13;;;;;;;12.43;4.27;;;;;;;12.42;76.88;101821.19;5017793;28;20196;-69
2021/06/14 00:50:47;;;;;;;12.40;4.60;;;;;;;12.41;76.85;101815.91;5017669;28;20202;-68
2021/06/14 00:53:22;;;;;;;11.47;4.77;;;;;;;12.37;77.03;101807.16;5035262;28;20188;-68
2021/06/14 00:55:48;;;;;;;10.97;4.50;;;;;;;12.40;76.49;101815.03;5017849;28;20175;-68
2021/06/14 00:58:14;;;;;;;9.23;4.07;;;;;;;12.42;76.50;101817.66;5035192;28;20208;-68
2021/06/14 01:00:40;;;;;;;10.37;3.90;;;;;;;12.40;77.14;101811.50;5017580;28;20173;-68
2021/06/14 01:03:06;;;;;;;12.50;5.23;;;;;;;12.37;77.34;101811.63;5017473;28;20176;-68
2021/06/14 01:05:56;;;;;;;8.60;4.33;;;;;;;12.47;76.13;101815.63;5035125;28;20176;-68
2021/06/14 01:08:21;;;;;;;9.17;4.27;;;;;;;12.44;76.67;101823.81;5035050;28;20729;-68
2021/06/14 01:10:49;;;;;;;8.83;4.40;;;;;;;12.43;77.01;101809.53;5034823;28;20176;-68
2021/06/14 01:13:30;;;;;;;9.43;5.10;;;;;;;12.42;76.50;101806.94;5017674;28;20218;-68
2021/06/14 01:16:15;;;;;;;8.80;3.97;;;;;;;12.38;76.45;101808.00;5034985;28;20166;-68
2021/06/14 01:19:01;;;;;;;13.10;4.60;;;;;;;12.33;76.57;101810.91;5017124;28;20192;-68
2021/06/14 01:21:32;;;;;;;10.87;4.20;;;;;;;12.32;77.07;101808.31;5017444;28;20153;-68
2021/06/14 01:24:36;;;;;;;10.70;3.67;;;;;;;12.31;76.38;101804.75;5017214;28;20628;-68
2021/06/14 01:27:06;;;;;;;14.33;4.70;;;;;;;12.19;77.12;101800.78;4997375;28;20208;-68
2021/06/14 01:29:32;;;;;;;9.00;3.50;;;;;;;12.15;77.04;101801.88;5035176;28;20187;-69
2021/06/14 01:31:58;;;;;;;7.40;3.87;;;;;;;12.10;77.39;101801.19;5017107;28;20273;-68
2021/06/14 01:34:27;;;;;;;12.00;6.23;;;;;;;11.98;77.53;101791.03;5016881;28;20223;-68
2021/06/14 01:36:52;;;;;;;11.00;4.73;;;;;;;11.93;78.22;101800.22;5000618;28;20172;-68
2021/06/14 01:39:18;;;;;;;10.47;5.10;;;;;;;11.88;78.34;101793.22;5000529;28;20670;-68
2021/06/14 01:41:44;;;;;;;8.37;4.03;;;;;;;11.88;78.16;101797.72;5000296;28;20176;-68
2021/06/14 01:44:10;;;;;;;9.63;4.20;;;;;;;11.81;78.03;101797.09;5033426;28;20204;-69
2021/06/14 01:46:37;;;;;;;10.63;4.50;;;;;;;11.74;78.66;101797.41;5016768;28;20172;-68
2021/06/14 01:49:05;;;;;;;9.13;4.23;;;;;;;11.69;78.82;101788.72;5016893;28;20184;-69
2021/06/14 01:51:31;;;;;;;8.30;4.20;;;;;;;11.69;79.51;101788.72;5034482;28;20205;-69
2021/06/14 01:54:03;;;;;;;8.37;4.40;;;;;;;11.71;78.67;101794.88;5035010;28;20172;-69
2021/06/14 01:56:37;;;;;;;9.37;4.30;;;;;;;11.69;78.35;101781.56;5034657;28;20211;-68
2021/06/14 01:59:04;;;;;;;7.03;4.13;;;;;;;11.68;79.00;101787.84;5023657;23;20227;-70
2021/06/14 02:01:30;;;;;;;9.23;4.53;;;;;;;11.69;79.54;101789.59;4980669;28;20254;-71
2021/06/14 02:03:57;;;;;;;8.33;4.40;;;;;;;11.66;78.82;101783.50;4996960;28;20626;-71
2021/06/14 02:06:26;;;;;;;13.13;5.00;;;;;;;11.66;79.35;101783.50;4980760;28;20173;-70
2021/06/14 02:08:51;;;;;;;19.03;9.80;;;;;;;11.67;78.63;101779.88;4997486;28;20192;-71
2021/06/14 02:11:17;;;;;;;8.63;4.33;;;;;;;11.65;78.50;101781.75;4997732;28;20291;-73
2021/06/14 02:13:43;;;;;;;9.03;4.73;;;;;;;11.59;79.35;101788.25;4997667;28;20286;-72
2021/06/14 02:16:09;;;;;;;10.43;4.20;;;;;;;11.53;79.44;101778.69;4996913;28;20188;-71
2021/06/14 02:18:34;;;;;;;13.70;4.17;;;;;;;11.52;79.94;101773.38;4996717;28;20204;-71
2021/06/14 02:20:59;;;;;;;9.83;4.30;;;;;;;11.46;80.00;101770.94;4996539;28;20181;-71
2021/06/14 02:23:25;;;;;;;8.40;4.10;;;;;;;11.43;80.35;101768.41;4980199;28;20196;-71
2021/06/14 02:25:50;;;;;;;7.87;4.27;;;;;;;11.48;79.46;101766.41;4996809;28;20662;-71
2021/06/14 02:28:15;;;;;;;7.37;3.50;;;;;;;11.50;79.96;101765.41;5014043;28;20197;-71
2021/06/14 02:30:41;;;;;;;9.43;4.03;;;;;;;11.56;79.38;101769.66;4996431;28;20184;-71
2021/06/14 02:33:06;;;;;;;9.37;4.27;;;;;;;11.60;79.49;101765.91;4996385;28;20657;-71
2021/06/14 02:35:32;;;;;;;10.93;4.50;;;;;;;11.68;79.28;101766.44;4996796;28;20197;-71
2021/06/14 02:38:01;;;;;;;8.67;4.13;;;;;;;11.64;79.41;101756.81;4997649;28;20196;-70
2021/06/14 02:40:30;;;;;;;10.43;4.50;;;;;;;11.66;79.14;101762.97;5017975;28;20181;-72
2021/06/14 02:43:04;;;;;;;11.53;4.33;;;;;;;11.74;79.06;101768.00;5034387;28;20180;-72
2021/06/14 02:45:30;;;;;;;8.17;3.83;;;;;;;11.74;79.25;101754.63;5018174;28;20275;-71
2021/06/14 02:47:56;;;;;;;10.13;3.70;;;;;;;11.74;78.71;101759.97;4979874;28;20681;-71
2021/06/14 02:50:21;;;;;;;9.23;4.17;;;;;;;11.76;78.95;101763.44;4996794;28;20216;-72
2021/06/14 02:52:48;;;;;;;11.30;4.57;;;;;;;11.79;78.77;101749.97;4979767;28;20287;-71
2021/06/14 02:55:16;;;;;;;9.47;4.33;;;;;;;11.80;79.37;101755.25;4979524;28;20188;-71
2021/06/14 02:57:50;;;;;;;9.47;4.17;;;;;;;11.85;78.19;101757.72;4995807;28;20204;-71
2021/06/14 03:00:16;;;;;;;8.77;4.00;;;;;;;11.89;78.35;101757.53;4996180;28;20154;-71
2021/06/14 03:02:42;;;;;;;7.90;4.07;;;;;;;11.94;77.95;101754.66;4979655;28;20219;-72
2021/06/14 03:05:08;;;;;;;11.27;4.70;;;;;;;11.98;77.61;101753.59;4995893;28;20645;-72
2021/06/14 03:07:34;;;;;;;7.07;4.10;;;;;;;12.00;77.99;101759.75;4979708;28;20201;-72
2021/06/14 03:09:59;;;;;;;9.27;4.53;;;;;;;12.02;77.65;101755.19;4995988;28;20664;-72
2021/06/14 03:12:26;;;;;;;14.03;4.47;;;;;;;12.04;77.47;101760.47;4995886;28;20675;-72
2021/06/14 03:14:52;;;;;;;7.53;3.80;;;;;;;12.09;77.08;101759.31;5013543;28;20172;-72
2021/06/14 03:17:17;;;;;;;10.80;4.40;;;;;;;12.14;77.31;101745.75;4979518;28;20177;-72
2021/06/14 03:19:46;;;;;;;8.00;4.33;;;;;;;12.18;76.64;101748.19;4995916;28;20568;-72
2021/06/14 03:22:11;;;;;;;10.17;4.40;;;;;;;12.23;77.14;101750.66;5013561;28;20173;-72
2021/06/14 03:24:38;;;;;;;8.47;4.30;;;;;;;12.29;76.93;101750.41;4996165;28;20181;-72
2021/06/14 03:27:04;;;;;;;8.20;3.80;;;;;;;12.34;76.96;101748.41;4996159;28;20204;-72
2021/06/14 03:29:30;;;;;;;9.37;4.47;;;;;;;12.39;76.97;101753.53;4979499;28;20204;-72
2021/06/14 03:31:55;;;;;;;10.20;4.57;;;;;;;12.42;76.44;101754.25;4979501;28;20279;-72
2021/06/14 03:34:22;;;;;;;7.30;4.10;;;;;;;12.43;76.29;101749.78;4996246;28;20165;-72
2021/06/14 03:36:47;;;;;;;9.23;4.90;;;;;;;12.44;76.14;101746.16;5013661;28;20222;-72
2021/06/14 03:39:17;;;;;;;14.67;5.50;;;;;;;12.49;76.67;101747.69;4995669;28;20284;-72
2021/06/14 03:41:46;;;;;;;14.47;5.30;;;;;;;12.52;76.19;101741.31;5013748;28;20172;-72
2021/06/14 03:44:12;;;;;;;9.70;4.50;;;;;;;12.50;76.07;101743.19;4996084;28;20205;-72
2021/06/14 03:46:38;;;;;;;11.97;3.87;;;;;;;12.55;75.90;101740.28;4995595;28;20168;-72
2021/06/14 03:49:04;;;;;;;13.63;4.87;;;;;;;12.59;76.21;101739.22;4995729;28;20232;-73
2021/06/14 03:51:30;;;;;;;10.20;4.50;;;;;;;12.62;75.75;101733.69;5013203;28;20201;-72
2021/06/14 03:53:58;;;;;;;8.17;4.33;;;;;;;12.64;75.96;101737.22;4995448;28;20641;-72
2021/06/14 03:56:29;;;;;;;8.40;3.93;;;;;;;12.69;75.46;101737.84;5013834;28;20173;-71
2021/06/14 03:58:55;;;;;;;7.70;4.63;;;;;;;12.71;75.75;101736.84;4995166;28;20266;-72
2021/06/14 04:01:21;;;;;;;8.33;3.90;;;;;;;12.76;75.45;101731.25;4995835;28;20654;-72
2021/06/14 04:03:58;;;;;;;11.90;5.33;;;;;;;12.81;75.38;101731.91;4979457;28;20586;-70
2021/06/14 04:06:23;;;;;;;14.13;7.33;;;;;;;12.84;75.48;101737.97;4998393;28;20206;-70
2021/06/14 04:08:49;;;;;;;8.03;4.70;;;;;;;12.89;75.27;101734.22;4999294;28;20197;-70
2021/06/14 04:11:14;;;;;;;8.93;5.00;;;;;;;12.89;75.45;101728.84;4999420;28;20197;-72
2021/06/14 04:13:39;;;;;;;8.93;6.13;;;;;;;12.88;76.00;101732.47;5017436;28;20207;-71
2021/06/14 04:16:05;;;;;;;9.87;4.60;;;;;;;12.94;75.57;101726.81;5000184;28;20177;-71
2021/06/14 04:18:30;;;;;;;8.43;3.77;;;;;;;12.95;75.54;101729.41;5017191;28;20568;-71
2021/06/14 04:20:55;;;;;;;11.37;4.83;;;;;;;13.00;75.51;101729.19;4999459;28;20515;-71
2021/06/14 04:23:20;;;;;;;8.27;3.80;;;;;;;13.07;75.58;101718.13;4999962;28;20179;-71
2021/06/14 04:25:46;;;;;;;10.00;3.90;;;;;;;13.04;75.21;101734.34;4999466;28;20181;-71
2021/06/14 04:28:11;;;;;;;9.73;4.23;;;;;;;13.11;75.17;101729.56;4982926;28;20193;-72
2021/06/14 04:30:36;;;;;;;10.43;5.77;;;;;;;13.18;74.83;101728.34;5017057;28;20173;-71
2021/06/14 04:33:02;;;;;;;12.57;4.87;;;;;;;13.23;74.00;101720.06;5017764;28;20614;-71
2021/06/14 04:35:28;;;;;;;10.27;4.33;;;;;;;13.27;74.65;101716.28;5017023;28;20185;-71
2021/06/14 04:37:53;;;;;;;6.90;4.07;;;;;;;13.32;73.45;101717.78;4998651;28;20751;-71
2021/06/14 04:40:18;;;;;;;8.40;4.70;;;;;;;13.37;73.37;101717.53;5016362;28;20553;-70
2021/06/14 04:42:44;;;;;;;12.43;5.27;;;;;;;13.40;73.69;101725.47;5016325;28;20720;-70
2021/06/14 04:45:10;;;;;;;8.13;4.63;;;;;;;13.36;73.67;101718.47;4998629;28;20220;-70
2021/06/14 04:47:35;;;;;;;4.93;3.53;;;;;;;13.37;74.07;101715.72;4999051;28;20568;-71
2021/06/14 04:50:01;;;;;;;8.73;3.73;;;;;;;13.38;74.15;101722.84;5001733;28;20180;-71
2021/06/14 04:52:27;;;;;;;9.90;4.03;;;;;;;13.44;74.05;101727.91;5000605;28;20692;-73
2021/06/14 04:54:53;;;;;;;9.30;4.20;;;;;;;13.50;73.28;101724.03;4999012;28;20169;-71
2021/06/14 04:57:18;;;;;;;7.67;3.90;;;;;;;13.53;73.67;101731.06;5016421;28;20642;-70
2021/06/14 04:59:43;;;;;;;10.10;4.13;;;;;;;13.57;72.93;101735.31;4998821;28;20633;-71
2021/06/14 05:02:09;;;;;;;6.73;3.30;;;;;;;13.58;73.33;101734.38;4982254;28;20200;-71
2021/06/14 05:04:34;;;;;;;7.93;3.87;;;;;;;13.61;73.23;101734.22;4998647;28;20197;-71
2021/06/14 05:06:59;;;;;;;7.77;3.80;;;;;;;13.68;73.82;101731.13;4998895;28;20169;-72
2021/06/14 05:09:24;;;;;;;6.93;3.90;;;;;;;13.66;73.62;101740.19;5016231;28;20224;-72
2021/06/14 05:11:50;;;;;;;9.73;3.77;;;;;;;13.65;73.89;101733.97;4982348;28;20696;-71
2021/06/14 05:14:15;;;;;;;14.30;8.60;;;;;;;13.81;72.48;101736.75;5016745;28;20256;-72
2021/06/14 05:16:42;;;;;;;21.73;15.50;;;;;;;13.92;72.07;101731.69;4999819;28;20199;-71
2021/06/14 05:19:07;;;;;;;9.83;4.40;;;;;;;13.99;72.12;101738.44;5019251;28;20276;-71
2021/06/14 05:21:32;;;;;;;10.73;5.00;;;;;;;14.12;71.97;101729.72;5017569;28;20642;-72
2021/06/14 05:23:57;;;;;;;12.00;5.77;;;;;;;14.16;70.88;101729.53;5015289;28;20619;-71
2021/06/14 05:26:23;;;;;;;15.07;6.07;;;;;;;14.19;70.78;101732.03;5015413;28;20633;-71
2021/06/14 05:28:48;;;;;;;10.03;3.90;;;;;;;14.23;71.11;101738.97;5015238;28;20201;-71
2021/06/14 05:31:13;;;;;;;8.87;4.67;;;;;;;14.26;70.95;101732.56;5014862;28;20197;-71
2021/06/14 05:33:39;;;;;;;20.43;7.87;;;;;;;14.24;70.81;101740.72;5015388;28;20200;-71
2021/06/14 05:36:04;;;;;;;13.33;6.93;;;;;;;14.24;71.33;101735.34;4997685;28;20227;-72
2021/06/14 05:38:30;;;;;;;10.80;4.90;;;;;;;14.30;71.32;101739.50;4981965;28;20193;-73
2021/06/14 05:40:55;;;;;;;8.27;4.23;;;;;;;14.39;70.97;101744.38;4997581;28;20173;-71
2021/06/14 05:43:21;;;;;;;11.87;4.70;;;;;;;14.43;70.78;101740.59;4997549;28;20263;-72
2021/06/14 05:45:46;;;;;;;7.77;3.80;;;;;;;14.37;71.21;101740.91;4981107;28;20173;-71
2021/06/14 05:48:12;;;;;;;11.33;4.23;;;;;;;14.45;71.36;101740.50;4981866;28;20280;-72
2021/06/14 05:50:37;;;;;;;12.53;8.20;;;;;;;14.50;71.54;101741.16;5015183;28;20176;-71
2021/06/14 05:53:02;;;;;;;10.67;4.67;;;;;;;14.56;71.30;101744.38;4997013;28;20628;-71
2021/06/14 05:55:28;;;;;;;10.40;5.17;;;;;;;14.66;71.40;101744.72;4996991;28;20173;-70
2021/06/14 05:57:53;;;;;;;9.43;4.70;;;;;;;14.70;71.17;101732.84;4997040;28;20680;-72
2021/06/14 06:00:19;;;;;;;8.37;3.80;;;;;;;14.72;71.23;101735.44;4980835;28;20204;-71
2021/06/14 06:02:44;;;;;;;8.73;4.63;;;;;;;14.84;71.28;101735.59;4997007;28;20176;-71
2021/06/14 06:05:10;;;;;;;11.90;4.60;;;;;;;14.90;70.97;101745.16;4997095;28;20188;-72
2021/06/14 06:07:36;;;;;;;10.37;5.40;;;;;;;14.89;70.65;101740.75;5014947;28;20192;-72
2021/06/14 06:10:06;;;;;;;8.70;4.73;;;;;;;14.89;70.86;101743.44;4997322;28;20255;-72
2021/06/14 06:12:31;;;;;;;10.80;4.83;;;;;;;15.03;70.86;101746.19;5014356;28;20201;-71
2021/06/14 06:14:57;;;;;;;9.03;4.47;;;;;;;15.13;70.35;101746.53;4996959;28;20264;-70
2021/06/14 06:17:23;;;;;;;9.73;4.03;;;;;;;15.21;70.08;101744.25;5014909;28;20165;-72
2021/06/14 06:19:48;;;;;;;9.63;5.37;;;;;;;15.36;68.82;101742.53;5015364;28;20235;-72
2021/06/14 06:22:14;;;;;;;15.27;6.20;;;;;;;15.47;68.66;101734.69;5018244;28;20177;-71
2021/06/14 06:24:40;;;;;;;10.53;4.20;;;;;;;15.35;68.42;101746.16;5005837;28;20169;-72
2021/06/14 06:27:06;;;;;;;14.30;5.10;;;;;;;15.56;68.51;101744.88;5029049;28;20226;-71
2021/06/14 06:29:31;;;;;;;8.70;4.47;;;;;;;15.70;67.94;101753.06;4995665;28;20201;-71
2021/06/14 06:31:59;;;;;;;9.13;4.20;;;;;;;15.72;67.21;101748.44;5015285;28;20220;-72
2021/06/14 06:34:25;;;;;;;9.83;4.53;;;;;;;15.84;66.94;101742.31;4999237;28;20188;-71
2021/06/14 06:36:50;;;;;;;12.53;5.37;;;;;;;15.93;66.93;101746.25;4980605;28;20498;-71
2021/06/14 06:39:16;;;;;;;8.20;3.60;;;;;;;16.01;66.37;101745.81;4980672;28;20224;-71
2021/06/14 06:41:41;;;;;;;8.70;3.70;;;;;;;16.06;66.09;101749.97;5014288;28;20180;-70
2021/06/14 06:44:08;;;;;;;8.33;3.13;;;;;;;16.17;64.25;101742.09;5013908;28;20205;-71
2021/06/14 06:46:34;;;;;;;7.57;3.47;;;;;;;16.17;64.50;101738.53;4996643;28;20227;-71
2021/06/14 06:48:59;;;;;;;8.07;3.37;;;;;;;16.26;62.93;101735.25;4980545;28;20193;-71
2021/06/14 06:51:24;;;;;;;6.20;2.83;;;;;;;16.29;63.19;101729.66;5013999;28;20664;-70
2021/06/14 06:54:10;;;;;;;7.90;2.70;;;;;;;16.21;63.64;101726.59;5013947;28;20184;-70
2021/06/14 06:56:35;;;;;;;9.33;3.20;;;;;;;16.41;62.15;101723.53;5013552;28;20239;-71
2021/06/14 06:59:00;;;;;;;9.17;3.23;;;;;;;16.32;63.37;101715.13;4995952;28;20205;-70
2021/06/14 07:01:25;;;;;;;7.50;3.83;;;;;;;16.32;63.27;101710.63;4997338;28;20177;-70
2021/06/14 07:03:51;;;;;;;16.40;8.83;;;;;;;16.44;62.34;101723.34;5014034;28;20188;-70
2021/06/14 07:06:16;;;;;;;5.33;3.00;;;;;;;16.53;62.37;101717.34;5013931;28;20173;-72
2021/06/14 07:08:42;;;;;;;9.63;3.80;;;;;;;16.68;60.38;101718.22;4996245;28;20196;-71
2021/06/14 07:11:07;;;;;;;9.37;3.10;;;;;;;16.73;60.74;101715.25;5013413;28;20211;-71
2021/06/14 07:13:32;;;;;;;8.73;3.40;;;;;;;16.72;59.42;101705.41;5013448;28;20561;-71
2021/06/14 07:15:58;;;;;;;5.97;2.60;;;;;;;16.81;59.53;101715.63;4995798;28;20546;-71
2021/06/14 07:18:23;;;;;;;6.77;2.93;;;;;;;16.91;58.71;101716.72;5013174;28;20203;-71
2021/06/14 07:20:49;;;;;;;6.77;2.63;;;;;;;16.92;59.39;101702.28;5013424;28;20629;-71
2021/06/14 07:23:14;;;;;;;8.73;3.20;;;;;;;16.88;59.99;101700.75;4979474;28;20177;-71
2021/06/14 07:25:39;;;;;;;7.80;3.20;;;;;;;16.93;59.90;101701.31;4995917;28;20633;-72
2021/06/14 07:28:05;;;;;;;8.17;2.73;;;;;;;16.92;60.27;101694.19;4979292;28;20200;-72
2021/06/14 07:30:31;;;;;;;5.17;2.47;;;;;;;17.05;60.35;101687.00;5013216;28;20177;-72
2021/06/14 07:32:57;;;;;;;9.00;3.00;;;;;;;17.24;60.07;101691.19;5013256;28;20243;-72
2021/06/14 07:35:22;;;;;;;6.77;2.60;;;;;;;16.96;59.30;101678.69;5013497;28;20641;-71
2021/06/14 07:37:47;;;;;;;8.23;3.27;;;;;;;17.17;59.53;101678.13;4979162;28;20207;-72
2021/06/14 07:40:13;;;;;;;7.57;2.50;;;;;;;17.35;58.03;101683.22;5013325;28;20180;-70
2021/06/14 07:42:38;;;;;;;6.83;2.50;;;;;;;17.40;58.67;101676.56;4998564;28;20180;-71
2021/06/14 07:45:04;;;;;;;7.70;3.03;;;;;;;17.44;57.75;101674.50;4999506;28;20177;-71
2021/06/14 07:47:29;;;;;;;5.33;2.37;;;;;;;17.63;55.29;101685.78;4983102;28;20288;-71
2021/06/14 07:49:55;;;;;;;4.40;2.10;;;;;;;17.59;55.97;101669.91;5017158;28;20634;-71
2021/06/14 07:52:20;;;;;;;13.03;2.07;;;;;;;17.70;54.41;101668.22;5017014;28;20255;-70
2021/06/14 07:54:46;;;;;;;10.67;5.50;;;;;;;17.73;54.97;101665.31;4999710;28;20181;-70
2021/06/14 07:57:11;;;;;;;8.73;2.93;;;;;;;17.81;55.61;101668.31;4999360;28;20582;-71
2021/06/14 07:59:36;;;;;;;4.30;2.10;;;;;;;17.88;54.49;101667.91;5021700;23;20244;-69
2021/06/14 08:02:02;;;;;;;6.77;2.33;;;;;;;17.98;54.15;101669.00;5016583;28;20183;-69
2021/06/14 08:04:28;;;;;;;6.10;2.20;;;;;;;18.02;54.27;101663.25;5016896;28;20595;-69
2021/06/14 08:06:53;;;;;;;3.53;2.00;;;;;;;18.06;53.77;101659.38;5016873;28;20177;-68
2021/06/14 08:09:26;;;;;;;8.60;2.10;;;;;;;18.14;54.83;101658.81;5016629;28;20196;-68
2021/06/14 08:11:53;;;;;;;5.23;2.33;;;;;;;18.21;55.30;101662.81;5016942;28;20200;-68
2021/06/14 08:14:19;;;;;;;5.70;2.33;;;;;;;18.25;54.88;101666.16;5016721;28;20514;-68
2021/06/14 08:16:44;;;;;;;7.90;2.50;;;;;;;18.30;55.63;101661.28;5016799;28;20183;-68
2021/06/14 08:19:13;;;;;;;4.63;2.00;;;;;;;18.40;53.75;101668.63;5016489;28;20205;-69
2021/06/14 08:26:48;;;;;;;5.53;2.40;;;;;;;18.63;54.32;101668.81;5016484;28;20176;-69
2021/06/14 08:29:14;;;;;;;6.73;2.90;;;;;;;18.61;53.56;101649.97;4998635;28;20561;-69
2021/06/14 08:31:41;;;;;;;3.73;1.93;;;;;;;18.48;54.61;101645.56;4999139;28;20280;-68
2021/06/14 08:34:09;;;;;;;3.33;2.00;;;;;;;18.51;54.25;101645.34;4998890;28;20252;-69
2021/06/14 08:36:34;;;;;;;6.63;1.77;;;;;;;18.64;52.91;101633.56;5016327;28;20211;-69
2021/06/14 08:38:59;;;;;;;5.80;1.50;;;;;;;18.72;51.63;101630.28;5015956;28;20201;-69
2021/06/14 08:41:25;;;;;;;5.17;1.70;;;;;;;18.77;51.40;101633.50;5016092;28;20177;-69
2021/06/14 08:43:52;;;;;;;4.37;1.57;;;;;;;18.83;51.97;101621.34;5015816;28;20177;-69
2021/06/14 08:46:17;;;;;;;5.33;1.50;;;;;;;18.68;52.68;101607.16;5016182;28;20596;-69
2021/06/14 08:48:43;;;;;;;4.63;1.70;;;;;;;18.92;50.48;101610.69;4998243;28;20193;-70
2021/06/14 08:51:09;;;;;;;3.77;1.50;;;;;;;18.95;50.58;101609.59;4998143;28;20200;-69
2021/06/14 08:53:36;;;;;;;4.20;1.57;;;;;;;19.03;51.14;101607.19;4997756;28;20223;-68
2021/06/14 08:56:02;;;;;;;4.90;1.53;;;;;;;19.08;51.04;101607.69;5015821;28;20185;-68
2021/06/14 08:58:29;;;;;;;5.97;1.67;;;;;;;19.19;49.28;101604.16;4997755;28;20213;-68
2021/06/14 09:00:55;;;;;;;4.07;1.60;;;;;;;19.21;48.16;101621.16;5015588;28;20634;-68
2021/06/14 09:03:24;;;;;;;3.67;1.40;;;;;;;19.23;48.81;101608.34;5015866;28;20264;-68
2021/06/14 09:05:49;;;;;;;5.47;2.27;;;;;;;19.30;48.25;101609.59;5015927;28;20169;-69
2021/06/14 09:08:15;;;;;;;2.30;1.10;;;;;;;19.39;48.82;101587.25;5016239;28;20207;-69
2021/06/14 09:10:41;;;;;;;4.20;1.43;;;;;;;19.46;47.84;101590.34;5015802;28;20184;-69
2021/06/14 09:13:12;;;;;;;2.60;1.20;;;;;;;19.54;48.10;101601.47;4998551;28;20227;-69
2021/06/14 09:15:39;;;;;;;5.90;2.53;;;;;;;19.58;47.46;101602.94;5016235;28;20176;-69
2021/06/14 09:18:26;;;;;;;7.50;4.20;;;;;;;19.69;46.48;101594.81;5002785;28;20692;-68
2021/06/14 09:21:07;;;;;;;10.37;5.57;;;;;;;19.71;46.19;101594.75;5022646;28;20154;-69
2021/06/14 09:23:41;;;;;;;4.83;1.40;;;;;;;19.72;45.90;101593.75;4998206;28;20251;-69
2021/06/14 09:26:07;;;;;;;3.50;2.37;;;;;;;19.72;47.05;101582.91;5015379;28;20660;-69
2021/06/14 09:28:32;;;;;;;4.07;1.90;;;;;;;19.89;47.04;101585.13;4998362;28;20200;-69
2021/06/14 09:30:59;;;;;;;2.20;1.20;;;;;;;20.05;47.44;101574.75;5015438;28;20633;-69
2021/06/14 09:33:26;;;;;;;1.77;1.10;;;;;;;19.83;46.98;101575.66;5015671;28;20205;-69
2021/06/14 09:35:53;;;;;;;6.37;1.70;;;;;;;20.09;46.97;101562.72;4997616;28;20179;-69
2021/06/14 09:38:20;;;;;;;8.30;4.87;;;;;;;20.20;46.16;101561.84;5015133;28;20228;-68
2021/06/14 09:40:48;;;;;;;5.97;2.10;;;;;;;20.28;46.63;101551.22;5015163;28;20169;-68
2021/06/14 09:43:29;;;;;;;4.37;1.50;;;;;;;20.34;46.42;101555.28;5015221;28;20199;-68
2021/06/14 09:45:58;;;;;;;2.73;1.20;;;;;;;20.28;46.05;101553.94;5015152;28;20177;-68
2021/06/14 09:48:26;;;;;;;2.37;1.10;;;;;;;19.87;47.18;101544.63;4997428;28;20700;-69
2021/06/14 09:50:54;;;;;;;1.93;1.00;;;;;;;20.32;45.96;101549.97;5015406;28;20223;-68
2021/06/14 09:53:21;;;;;;;3.97;2.27;;;;;;;20.46;46.16;101549.75;5014887;28;20261;-68
2021/06/14 09:55:48;;;;;;;6.60;1.97;;;;;;;20.56;45.25;101547.13;5014738;28;20185;-69
2021/06/14 09:58:20;;;;;;;3.37;1.73;;;;;;;20.53;46.35;101540.09;5014721;28;20284;-69
2021/06/14 10:01:01;;;;;;;4.20;1.70;;;;;;;20.66;45.31;101539.94;5015047;28;20181;-70
2021/06/14 10:03:38;;;;;;;5.23;1.50;;;;;;;20.68;46.03;101524.38;5014390;28;20168;-69
2021/06/14 10:06:03;;;;;;;3.13;1.67;;;;;;;20.95;45.25;101523.03;4997270;28;20169;-69
2021/06/14 10:08:31;;;;;;;3.63;1.20;;;;;;;21.04;45.21;101514.09;4996825;28;20580;-68
2021/06/14 10:11:07;;;;;;;2.17;1.30;;;;;;;21.20;45.99;101515.38;5014651;28;20235;-69
2021/06/14 10:13:33;;;;;;;3.20;1.30;;;;;;;21.21;45.82;101513.50;5014687;28;20172;-68
2021/06/14 10:16:06;;;;;;;4.77;1.30;;;;;;;20.96;45.87;101511.19;4996838;28;20208;-68
2021/06/14 10:18:37;;;;;;;4.17;1.10;;;;;;;20.97;46.49;101502.06;4997027;28;20193;-68
2021/06/14 10:21:04;;;;;;;4.30;1.40;;;;;;;20.83;46.79;101498.69;5014575;28;20551;-69
2021/06/14 10:23:29;;;;;;;2.70;1.10;;;;;;;20.96;45.81;101498.47;5014229;28;20561;-68
2021/06/14 10:25:58;;;;;;;5.00;1.53;;;;;;;21.08;46.10;101489.25;5014233;28;20263;-68
2021/06/14 10:28:24;;;;;;;5.90;1.90;;;;;;;21.17;45.71;101490.31;5014130;28;20337;-68
2021/06/14 10:30:51;;;;;;;4.93;1.60;;;;;;;21.07;45.95;101486.69;5013888;28;20188;-68
2021/06/14 10:33:21;;;;;;;3.20;1.30;;;;;;;21.29;45.15;101475.72;4996887;28;20247;-68
2021/06/14 10:35:46;;;;;;;2.80;1.30;;;;;;;21.05;45.99;101475.97;5013971;28;20649;-68
2021/06/14 10:38:13;;;;;;;4.60;1.00;;;;;;;20.85;46.12;101466.84;5014094;28;20199;-69
2021/06/14 10:40:38;;;;;;;2.17;1.40;;;;;;;21.51;45.56;101474.66;4996696;28;20649;-69
2021/06/14 10:43:04;;;;;;;2.23;1.20;;;;;;;21.98;44.17;101467.69;4980322;28;20188;-69
2021/06/14 10:45:30;;;;;;;2.37;1.10;;;;;;;21.69;44.11;101467.59;4996687;28;20184;-69
2021/06/14 10:47:57;;;;;;;3.10;1.30;;;;;;;21.89;44.34;101463.06;5014083;28;20547;-68
2021/06/14 10:50:31;;;;;;;3.20;1.17;;;;;;;22.34;43.17;101462.63;5014274;28;20179;-69
2021/06/14 10:52:56;;;;;;;2.30;1.20;;;;;;;21.89;44.43;101451.34;5014665;28;20196;-69
2021/06/14 10:55:31;;;;;;;1.57;1.03;;;;;;;22.03;43.78;101443.72;5013960;28;20168;-69
2021/06/14 10:57:57;;;;;;;2.80;1.23;;;;;;;21.96;44.22;101447.97;4980276;28;20258;-69
2021/06/14 11:00:32;;;;;;;2.33;1.40;;;;;;;23.03;42.32;101446.13;5014636;28;20176;-70
2021/06/14 11:03:02;;;;;;;3.57;1.27;;;;;;;23.74;40.52;101454.63;4997204;28;20164;-69
2021/06/14 11:05:41;;;;;;;3.20;1.40;;;;;;;24.60;38.48;101442.28;5014292;28;20252;-69
2021/06/14 11:08:11;;;;;;;2.17;1.07;;;;;;;24.76;38.28;101446.16;4996472;28;20200;-69
2021/06/14 11:10:37;;;;;;;2.53;1.30;;;;;;;25.34;37.14;101438.25;5014624;28;20510;-69
2021/06/14 11:13:14;;;;;;;1.63;1.17;;;;;;;27.79;32.22;101456.59;4996377;28;20207;-69
2021/06/14 11:15:41;;;;;;;2.13;1.07;;;;;;;28.57;31.28;101448.25;5013706;28;20173;-69
2021/06/14 11:18:07;;;;;;;3.90;1.20;;;;;;;29.36;29.30;101450.59;5013917;28;20683;-72
2021/06/14 11:20:34;;;;;;;1.83;1.00;;;;;;;30.37;28.18;101445.19;4996101;28;20177;-69
2021/06/14 11:23:00;;;;;;;2.30;1.15;;;;;;;29.47;28.99;101440.03;5014264;28;20165;-70
2021/06/14 11:25:28;;;;;;;4.05;1.48;;;;;;;28.42;31.63;101438.25;4996273;28;20634;-69
2021/06/14 11:27:55;;;;;;;5.28;1.33;;;;;;;30.58;28.32;101438.81;4995826;28;20638;-69